sensor_id;sensor_type;location;lat;lon;timestamp;P1;durP1;ratioP1;P2;durP2;ratioP2
70825;SDS011;58446;41.490;22.098;2023-04-25T00:01:24;11.57;;;8.75;;
70825;SDS011;58446;41.490;22.098;2023-04-25T00:03:50;11.57;;;8.80;;
70825;SDS011;58446;41.490;22.098;2023-04-25T00:06:16;12.10;;;8.38;;
70825;SDS011;58446;41.490;22.098;2023-04-25T00:08:43;12.30;;;7.75;;
70825;SDS011;58446;41.490;22.098;2023-04-25T00:11:09;11.60;;;8.70;;
70825;SDS011;58446;41.490;22.098;2023-04-25T00:13:35;12.63;;;8.68;;
70825;SDS011;58446;41.490;22.098;2023-04-25T00:16:01;13.73;;;8.80;;
70825;SDS011;58446;41.490;22.098;2023-04-25T00:18:27;13.57;;;8.70;;
70825;SDS011;58446;41.490;22.098;2023-04-25T00:20:54;13.33;;;9.00;;
70825;SDS011;58446;41.490;22.098;2023-04-25T00:23:20;11.38;;;8.80;;
70825;SDS011;58446;41.490;22.098;2023-04-25T00:25:47;12.73;;;8.80;;
70825;SDS011;58446;41.490;22.098;2023-04-25T00:28:14;12.23;;;8.93;;
70825;SDS011;58446;41.490;22.098;2023-04-25T00:30:40;12.25;;;8.93;;
70825;SDS011;58446;41.490;22.098;2023-04-25T00:33:06;12.43;;;8.67;;
70825;SDS011;58446;41.490;22.098;2023-04-25T00:35:32;13.63;;;8.35;;
70825;SDS011;58446;41.490;22.098;2023-04-25T00:37:58;11.32;;;8.02;;
70825;SDS011;58446;41.490;22.098;2023-04-25T00:40:24;11.63;;;8.93;;
70825;SDS011;58446;41.490;22.098;2023-04-25T00:42:51;12.53;;;9.00;;
70825;SDS011;58446;41.490;22.098;2023-04-25T00:45:18;13.85;;;8.13;;
70825;SDS011;58446;41.490;22.098;2023-04-25T00:47:44;11.82;;;8.38;;
70825;SDS011;58446;41.490;22.098;2023-04-25T00:50:10;12.30;;;9.17;;
70825;SDS011;58446;41.490;22.098;2023-04-25T00:52:37;11.88;;;8.18;;
70825;SDS011;58446;41.490;22.098;2023-04-25T00:55:06;12.80;;;8.80;;
70825;SDS011;58446;41.490;22.098;2023-04-25T00:57:33;10.82;;;8.25;;
70825;SDS011;58446;41.490;22.098;2023-04-25T00:59:59;11.90;;;7.63;;
70825;SDS011;58446;41.490;22.098;2023-04-25T01:02:25;12.00;;;7.87;;
70825;SDS011;58446;41.490;22.098;2023-04-25T01:04:52;12.70;;;8.25;;
70825;SDS011;58446;41.490;22.098;2023-04-25T01:07:18;11.75;;;7.63;;
70825;SDS011;58446;41.490;22.098;2023-04-25T01:09:44;12.30;;;7.78;;
70825;SDS011;58446;41.490;22.098;2023-04-25T01:12:11;10.50;;;7.57;;
70825;SDS011;58446;41.490;22.098;2023-04-25T01:14:37;11.40;;;7.90;;
70825;SDS011;58446;41.490;22.098;2023-04-25T01:17:03;11.93;;;8.18;;
70825;SDS011;58446;41.490;22.098;2023-04-25T01:19:29;12.13;;;7.75;;
70825;SDS011;58446;41.490;22.098;2023-04-25T01:21:55;12.43;;;7.30;;
70825;SDS011;58446;41.490;22.098;2023-04-25T01:24:20;13.02;;;7.60;;
70825;SDS011;58446;41.490;22.098;2023-04-25T01:26:46;10.35;;;7.90;;
70825;SDS011;58446;41.490;22.098;2023-04-25T01:29:16;11.33;;;8.03;;
70825;SDS011;58446;41.490;22.098;2023-04-25T01:31:43;12.20;;;8.18;;
70825;SDS011;58446;41.490;22.098;2023-04-25T01:34:10;14.32;;;7.60;;
70825;SDS011;58446;41.490;22.098;2023-04-25T01:36:36;12.15;;;8.20;;
70825;SDS011;58446;41.490;22.098;2023-04-25T01:39:02;11.23;;;7.50;;
70825;SDS011;58446;41.490;22.098;2023-04-25T01:41:28;12.60;;;8.23;;
70825;SDS011;58446;41.490;22.098;2023-04-25T01:43:54;10.40;;;7.68;;
70825;SDS011;58446;41.490;22.098;2023-04-25T01:46:20;11.63;;;8.73;;
70825;SDS011;58446;41.490;22.098;2023-04-25T01:48:46;11.00;;;7.77;;
70825;SDS011;58446;41.490;22.098;2023-04-25T01:51:12;11.50;;;7.88;;
70825;SDS011;58446;41.490;22.098;2023-04-25T01:53:38;10.27;;;7.25;;
70825;SDS011;58446;41.490;22.098;2023-04-25T01:56:04;10.37;;;7.57;;
70825;SDS011;58446;41.490;22.098;2023-04-25T01:58:30;9.93;;;7.05;;
70825;SDS011;58446;41.490;22.098;2023-04-25T02:00:56;11.60;;;7.70;;
70825;SDS011;58446;41.490;22.098;2023-04-25T02:03:32;11.27;;;8.30;;
70825;SDS011;58446;41.490;22.098;2023-04-25T02:06:06;11.32;;;7.20;;
70825;SDS011;58446;41.490;22.098;2023-04-25T02:08:32;12.30;;;7.20;;
70825;SDS011;58446;41.490;22.098;2023-04-25T02:10:58;9.90;;;7.07;;
70825;SDS011;58446;41.490;22.098;2023-04-25T02:13:24;11.15;;;7.75;;
70825;SDS011;58446;41.490;22.098;2023-04-25T02:15:50;10.40;;;6.80;;
70825;SDS011;58446;41.490;22.098;2023-04-25T02:18:15;11.60;;;8.02;;
70825;SDS011;58446;41.490;22.098;2023-04-25T02:20:41;10.93;;;7.23;;
70825;SDS011;58446;41.490;22.098;2023-04-25T02:23:08;12.20;;;6.93;;
70825;SDS011;58446;41.490;22.098;2023-04-25T02:25:33;11.38;;;8.05;;
70825;SDS011;58446;41.490;22.098;2023-04-25T02:27:59;12.47;;;8.10;;
70825;SDS011;58446;41.490;22.098;2023-04-25T02:30:25;12.15;;;8.10;;
70825;SDS011;58446;41.490;22.098;2023-04-25T02:32:51;13.02;;;8.25;;
70825;SDS011;58446;41.490;22.098;2023-04-25T02:35:16;11.97;;;8.00;;
70825;SDS011;58446;41.490;22.098;2023-04-25T02:37:42;12.15;;;8.27;;
70825;SDS011;58446;41.490;22.098;2023-04-25T02:40:08;11.17;;;7.63;;
70825;SDS011;58446;41.490;22.098;2023-04-25T02:42:34;10.40;;;7.03;;
70825;SDS011;58446;41.490;22.098;2023-04-25T02:45:00;11.30;;;8.07;;
70825;SDS011;58446;41.490;22.098;2023-04-25T02:47:26;12.07;;;7.63;;
70825;SDS011;58446;41.490;22.098;2023-04-25T02:49:52;14.13;;;8.07;;
70825;SDS011;58446;41.490;22.098;2023-04-25T02:52:18;12.82;;;7.97;;
70825;SDS011;58446;41.490;22.098;2023-04-25T02:54:43;12.63;;;8.27;;
70825;SDS011;58446;41.490;22.098;2023-04-25T02:57:09;11.45;;;7.57;;
70825;SDS011;58446;41.490;22.098;2023-04-25T02:59:35;10.87;;;7.47;;
70825;SDS011;58446;41.490;22.098;2023-04-25T03:02:00;11.57;;;7.97;;
70825;SDS011;58446;41.490;22.098;2023-04-25T03:04:26;13.10;;;8.18;;
70825;SDS011;58446;41.490;22.098;2023-04-25T03:06:52;12.37;;;7.97;;
70825;SDS011;58446;41.490;22.098;2023-04-25T03:09:18;13.85;;;8.65;;
70825;SDS011;58446;41.490;22.098;2023-04-25T03:11:45;13.48;;;7.90;;
70825;SDS011;58446;41.490;22.098;2023-04-25T03:14:11;11.68;;;7.80;;
70825;SDS011;58446;41.490;22.098;2023-04-25T03:16:37;13.90;;;8.53;;
70825;SDS011;58446;41.490;22.098;2023-04-25T03:19:03;14.07;;;8.88;;
70825;SDS011;58446;41.490;22.098;2023-04-25T03:21:30;12.48;;;8.48;;
70825;SDS011;58446;41.490;22.098;2023-04-25T03:24:00;12.80;;;8.37;;
70825;SDS011;58446;41.490;22.098;2023-04-25T03:26:27;13.30;;;8.98;;
70825;SDS011;58446;41.490;22.098;2023-04-25T03:28:53;13.45;;;8.93;;
70825;SDS011;58446;41.490;22.098;2023-04-25T03:31:18;12.67;;;8.53;;
70825;SDS011;58446;41.490;22.098;2023-04-25T03:33:44;11.68;;;8.10;;
70825;SDS011;58446;41.490;22.098;2023-04-25T03:36:10;11.80;;;8.63;;
70825;SDS011;58446;41.490;22.098;2023-04-25T03:38:36;14.03;;;9.03;;
70825;SDS011;58446;41.490;22.098;2023-04-25T03:41:02;13.40;;;8.85;;
70825;SDS011;58446;41.490;22.098;2023-04-25T03:43:28;12.43;;;8.07;;
70825;SDS011;58446;41.490;22.098;2023-04-25T03:45:53;15.60;;;7.78;;
70825;SDS011;58446;41.490;22.098;2023-04-25T03:48:19;11.85;;;8.10;;
70825;SDS011;58446;41.490;22.098;2023-04-25T03:50:47;11.75;;;8.20;;
70825;SDS011;58446;41.490;22.098;2023-04-25T03:53:13;13.23;;;8.87;;
70825;SDS011;58446;41.490;22.098;2023-04-25T03:55:38;11.90;;;8.20;;
70825;SDS011;58446;41.490;22.098;2023-04-25T03:58:05;10.80;;;7.60;;
70825;SDS011;58446;41.490;22.098;2023-04-25T04:00:30;10.65;;;7.88;;
70825;SDS011;58446;41.490;22.098;2023-04-25T04:02:56;10.70;;;7.72;;
70825;SDS011;58446;41.490;22.098;2023-04-25T04:05:22;11.10;;;6.93;;
70825;SDS011;58446;41.490;22.098;2023-04-25T04:07:51;12.48;;;8.00;;
70825;SDS011;58446;41.490;22.098;2023-04-25T04:10:16;9.70;;;6.50;;
70825;SDS011;58446;41.490;22.098;2023-04-25T04:12:42;10.03;;;7.43;;
70825;SDS011;58446;41.490;22.098;2023-04-25T04:15:08;9.95;;;6.70;;
70825;SDS011;58446;41.490;22.098;2023-04-25T04:17:34;10.73;;;7.70;;
70825;SDS011;58446;41.490;22.098;2023-04-25T04:20:00;10.30;;;7.03;;
70825;SDS011;58446;41.490;22.098;2023-04-25T04:22:26;10.47;;;7.20;;
70825;SDS011;58446;41.490;22.098;2023-04-25T04:24:52;14.15;;;7.28;;
70825;SDS011;58446;41.490;22.098;2023-04-25T04:27:18;10.27;;;7.63;;
70825;SDS011;58446;41.490;22.098;2023-04-25T04:29:44;10.43;;;7.30;;
70825;SDS011;58446;41.490;22.098;2023-04-25T04:32:11;8.95;;;6.30;;
70825;SDS011;58446;41.490;22.098;2023-04-25T04:34:37;10.10;;;7.35;;
70825;SDS011;58446;41.490;22.098;2023-04-25T04:37:04;10.68;;;6.93;;
70825;SDS011;58446;41.490;22.098;2023-04-25T04:39:32;11.20;;;6.57;;
70825;SDS011;58446;41.490;22.098;2023-04-25T04:41:58;9.70;;;6.93;;
70825;SDS011;58446;41.490;22.098;2023-04-25T04:44:24;12.50;;;6.20;;
70825;SDS011;58446;41.490;22.098;2023-04-25T04:46:50;8.50;;;5.50;;
70825;SDS011;58446;41.490;22.098;2023-04-25T04:49:16;9.77;;;6.03;;
70825;SDS011;58446;41.490;22.098;2023-04-25T04:51:42;10.25;;;7.05;;
70825;SDS011;58446;41.490;22.098;2023-04-25T04:54:12;9.95;;;6.80;;
70825;SDS011;58446;41.490;22.098;2023-04-25T04:56:37;10.65;;;7.60;;
70825;SDS011;58446;41.490;22.098;2023-04-25T04:59:04;11.45;;;7.13;;
70825;SDS011;58446;41.490;22.098;2023-04-25T05:01:29;10.70;;;6.87;;
70825;SDS011;58446;41.490;22.098;2023-04-25T05:03:55;10.52;;;6.50;;
70825;SDS011;58446;41.490;22.098;2023-04-25T05:06:25;10.32;;;7.40;;
70825;SDS011;58446;41.490;22.098;2023-04-25T05:08:52;11.53;;;6.97;;
70825;SDS011;58446;41.490;22.098;2023-04-25T05:11:18;11.02;;;8.40;;
70825;SDS011;58446;41.490;22.098;2023-04-25T05:13:44;9.82;;;6.78;;
70825;SDS011;58446;41.490;22.098;2023-04-25T05:16:11;10.55;;;6.68;;
70825;SDS011;58446;41.490;22.098;2023-04-25T05:18:37;10.17;;;6.67;;
70825;SDS011;58446;41.490;22.098;2023-04-25T05:21:04;10.38;;;6.78;;
70825;SDS011;58446;41.490;22.098;2023-04-25T05:23:30;11.55;;;6.68;;
70825;SDS011;58446;41.490;22.098;2023-04-25T05:25:56;8.55;;;6.25;;
70825;SDS011;58446;41.490;22.098;2023-04-25T05:28:22;10.47;;;6.90;;
70825;SDS011;58446;41.490;22.098;2023-04-25T05:30:48;11.43;;;7.30;;
70825;SDS011;58446;41.490;22.098;2023-04-25T05:33:14;9.75;;;6.15;;
70825;SDS011;58446;41.490;22.098;2023-04-25T05:35:40;11.27;;;6.10;;
70825;SDS011;58446;41.490;22.098;2023-04-25T05:38:06;12.35;;;6.28;;
70825;SDS011;58446;41.490;22.098;2023-04-25T05:40:32;10.38;;;6.93;;
70825;SDS011;58446;41.490;22.098;2023-04-25T05:42:58;9.93;;;6.10;;
70825;SDS011;58446;41.490;22.098;2023-04-25T05:45:26;9.30;;;6.27;;
70825;SDS011;58446;41.490;22.098;2023-04-25T05:47:51;9.82;;;6.70;;
70825;SDS011;58446;41.490;22.098;2023-04-25T05:50:17;10.73;;;6.33;;
70825;SDS011;58446;41.490;22.098;2023-04-25T05:52:43;10.23;;;5.97;;
70825;SDS011;58446;41.490;22.098;2023-04-25T05:55:09;8.60;;;6.45;;
70825;SDS011;58446;41.490;22.098;2023-04-25T05:57:34;8.10;;;5.87;;
70825;SDS011;58446;41.490;22.098;2023-04-25T06:00:00;8.02;;;5.70;;
70825;SDS011;58446;41.490;22.098;2023-04-25T06:02:26;8.23;;;5.43;;
70825;SDS011;58446;41.490;22.098;2023-04-25T06:04:53;8.43;;;5.63;;
70825;SDS011;58446;41.490;22.098;2023-04-25T06:07:19;8.00;;;5.68;;
70825;SDS011;58446;41.490;22.098;2023-04-25T06:09:45;10.23;;;5.35;;
70825;SDS011;58446;41.490;22.098;2023-04-25T06:12:11;7.60;;;5.22;;
70825;SDS011;58446;41.490;22.098;2023-04-25T06:14:37;10.73;;;4.87;;
70825;SDS011;58446;41.490;22.098;2023-04-25T06:17:05;16.52;;;6.20;;
70825;SDS011;58446;41.490;22.098;2023-04-25T06:19:34;7.65;;;5.20;;
70825;SDS011;58446;41.490;22.098;2023-04-25T06:22:01;9.38;;;5.40;;
70825;SDS011;58446;41.490;22.098;2023-04-25T06:24:27;9.27;;;5.68;;
70825;SDS011;58446;41.490;22.098;2023-04-25T06:26:55;7.67;;;5.10;;
70825;SDS011;58446;41.490;22.098;2023-04-25T06:29:21;10.15;;;5.78;;
70825;SDS011;58446;41.490;22.098;2023-04-25T06:31:46;8.97;;;5.47;;
70825;SDS011;58446;41.490;22.098;2023-04-25T06:34:12;8.63;;;5.80;;
70825;SDS011;58446;41.490;22.098;2023-04-25T06:36:38;8.93;;;5.47;;
70825;SDS011;58446;41.490;22.098;2023-04-25T06:39:04;10.53;;;5.20;;
70825;SDS011;58446;41.490;22.098;2023-04-25T06:41:29;6.90;;;4.70;;
70825;SDS011;58446;41.490;22.098;2023-04-25T06:43:56;7.93;;;5.05;;
70825;SDS011;58446;41.490;22.098;2023-04-25T06:46:22;8.13;;;5.00;;
70825;SDS011;58446;41.490;22.098;2023-04-25T06:48:48;8.10;;;5.43;;
70825;SDS011;58446;41.490;22.098;2023-04-25T06:51:18;8.15;;;4.68;;
70825;SDS011;58446;41.490;22.098;2023-04-25T06:53:44;8.60;;;4.90;;
70825;SDS011;58446;41.490;22.098;2023-04-25T06:56:10;11.60;;;4.87;;
70825;SDS011;58446;41.490;22.098;2023-04-25T06:58:35;7.72;;;4.00;;
70825;SDS011;58446;41.490;22.098;2023-04-25T07:01:01;7.90;;;3.90;;
70825;SDS011;58446;41.490;22.098;2023-04-25T07:03:27;9.02;;;4.47;;
70825;SDS011;58446;41.490;22.098;2023-04-25T07:05:53;8.93;;;4.23;;
70825;SDS011;58446;41.490;22.098;2023-04-25T07:08:18;10.88;;;7.32;;
70825;SDS011;58446;41.490;22.098;2023-04-25T07:10:44;8.13;;;4.05;;
70825;SDS011;58446;41.490;22.098;2023-04-25T07:13:11;6.50;;;3.83;;
70825;SDS011;58446;41.490;22.098;2023-04-25T07:15:37;6.32;;;3.65;;
70825;SDS011;58446;41.490;22.098;2023-04-25T07:18:02;7.45;;;3.58;;
70825;SDS011;58446;41.490;22.098;2023-04-25T07:20:28;7.30;;;3.63;;
70825;SDS011;58446;41.490;22.098;2023-04-25T07:22:56;6.57;;;4.07;;
70825;SDS011;58446;41.490;22.098;2023-04-25T07:25:22;8.10;;;4.30;;
70825;SDS011;58446;41.490;22.098;2023-04-25T07:27:48;7.87;;;3.87;;
70825;SDS011;58446;41.490;22.098;2023-04-25T07:30:13;7.45;;;3.80;;
70825;SDS011;58446;41.490;22.098;2023-04-25T07:32:39;5.27;;;3.20;;
70825;SDS011;58446;41.490;22.098;2023-04-25T07:35:05;8.03;;;3.73;;
70825;SDS011;58446;41.490;22.098;2023-04-25T07:37:32;5.95;;;3.72;;
70825;SDS011;58446;41.490;22.098;2023-04-25T07:40:04;7.32;;;3.30;;
70825;SDS011;58446;41.490;22.098;2023-04-25T07:42:31;7.78;;;3.65;;
70825;SDS011;58446;41.490;22.098;2023-04-25T07:44:57;6.00;;;3.10;;
70825;SDS011;58446;41.490;22.098;2023-04-25T07:47:22;5.60;;;3.25;;
70825;SDS011;58446;41.490;22.098;2023-04-25T07:49:48;6.57;;;3.37;;
70825;SDS011;58446;41.490;22.098;2023-04-25T07:52:14;6.57;;;3.33;;
70825;SDS011;58446;41.490;22.098;2023-04-25T07:54:40;6.18;;;3.40;;
70825;SDS011;58446;41.490;22.098;2023-04-25T07:57:06;5.80;;;3.50;;
70825;SDS011;58446;41.490;22.098;2023-04-25T07:59:32;6.70;;;3.20;;
70825;SDS011;58446;41.490;22.098;2023-04-25T08:01:58;6.13;;;2.92;;
70825;SDS011;58446;41.490;22.098;2023-04-25T08:04:24;5.87;;;3.03;;
70825;SDS011;58446;41.490;22.098;2023-04-25T08:06:53;8.40;;;3.05;;
70825;SDS011;58446;41.490;22.098;2023-04-25T08:09:19;6.22;;;2.70;;
70825;SDS011;58446;41.490;22.098;2023-04-25T08:11:46;6.18;;;3.17;;
70825;SDS011;58446;41.490;22.098;2023-04-25T08:14:12;7.20;;;3.60;;
70825;SDS011;58446;41.490;22.098;2023-04-25T08:16:38;6.30;;;3.40;;
70825;SDS011;58446;41.490;22.098;2023-04-25T08:19:03;6.25;;;3.00;;
70825;SDS011;58446;41.490;22.098;2023-04-25T08:21:30;6.70;;;3.00;;
70825;SDS011;58446;41.490;22.098;2023-04-25T08:23:56;7.20;;;3.38;;
70825;SDS011;58446;41.490;22.098;2023-04-25T08:26:23;5.00;;;2.70;;
70825;SDS011;58446;41.490;22.098;2023-04-25T08:28:50;6.40;;;2.42;;
70825;SDS011;58446;41.490;22.098;2023-04-25T08:31:16;4.95;;;2.75;;
70825;SDS011;58446;41.490;22.098;2023-04-25T08:33:42;5.72;;;2.72;;
70825;SDS011;58446;41.490;22.098;2023-04-25T08:36:08;5.63;;;2.50;;
70825;SDS011;58446;41.490;22.098;2023-04-25T08:38:33;5.80;;;2.75;;
70825;SDS011;58446;41.490;22.098;2023-04-25T08:40:59;5.27;;;2.13;;
70825;SDS011;58446;41.490;22.098;2023-04-25T08:43:25;5.18;;;2.47;;
70825;SDS011;58446;41.490;22.098;2023-04-25T08:45:53;4.78;;;2.03;;
70825;SDS011;58446;41.490;22.098;2023-04-25T08:48:26;5.38;;;2.60;;
70825;SDS011;58446;41.490;22.098;2023-04-25T08:50:54;5.53;;;2.80;;
70825;SDS011;58446;41.490;22.098;2023-04-25T08:53:27;4.50;;;2.27;;
70825;SDS011;58446;41.490;22.098;2023-04-25T08:55:55;6.75;;;2.72;;
70825;SDS011;58446;41.490;22.098;2023-04-25T08:58:21;5.20;;;2.10;;
70825;SDS011;58446;41.490;22.098;2023-04-25T09:00:48;5.15;;;2.40;;
70825;SDS011;58446;41.490;22.098;2023-04-25T09:03:16;4.32;;;2.05;;
70825;SDS011;58446;41.490;22.098;2023-04-25T09:05:45;6.30;;;2.30;;
70825;SDS011;58446;41.490;22.098;2023-04-25T09:08:10;4.90;;;2.15;;
70825;SDS011;58446;41.490;22.098;2023-04-25T09:10:36;8.13;;;3.15;;
70825;SDS011;58446;41.490;22.098;2023-04-25T09:13:06;6.07;;;2.55;;
70825;SDS011;58446;41.490;22.098;2023-04-25T09:15:55;7.13;;;2.97;;
70825;SDS011;58446;41.490;22.098;2023-04-25T09:18:24;4.80;;;2.03;;
70825;SDS011;58446;41.490;22.098;2023-04-25T09:21:06;6.22;;;2.42;;
70825;SDS011;58446;41.490;22.098;2023-04-25T09:23:49;6.35;;;2.70;;
70825;SDS011;58446;41.490;22.098;2023-04-25T09:26:20;4.85;;;2.40;;
70825;SDS011;58446;41.490;22.098;2023-04-25T09:28:46;5.93;;;2.23;;
70825;SDS011;58446;41.490;22.098;2023-04-25T09:31:21;6.05;;;3.20;;
70825;SDS011;58446;41.490;22.098;2023-04-25T09:33:49;5.93;;;2.70;;
70825;SDS011;58446;41.490;22.098;2023-04-25T09:36:15;6.10;;;2.80;;
70825;SDS011;58446;41.490;22.098;2023-04-25T09:38:41;7.28;;;2.67;;
70825;SDS011;58446;41.490;22.098;2023-04-25T09:41:10;6.28;;;2.70;;
70825;SDS011;58446;41.490;22.098;2023-04-25T09:43:37;5.47;;;2.22;;
70825;SDS011;58446;41.490;22.098;2023-04-25T09:46:10;5.00;;;2.60;;
70825;SDS011;58446;41.490;22.098;2023-04-25T09:48:36;4.90;;;2.42;;
70825;SDS011;58446;41.490;22.098;2023-04-25T09:53:38;5.65;;;2.83;;
70825;SDS011;58446;41.490;22.098;2023-04-25T09:56:06;7.32;;;2.95;;
70825;SDS011;58446;41.490;22.098;2023-04-25T09:58:34;7.17;;;3.00;;
70825;SDS011;58446;41.490;22.098;2023-04-25T10:01:02;6.20;;;2.75;;
70825;SDS011;58446;41.490;22.098;2023-04-25T10:03:33;5.13;;;2.55;;
70825;SDS011;58446;41.490;22.098;2023-04-25T10:06:01;5.53;;;2.55;;
70825;SDS011;58446;41.490;22.098;2023-04-25T10:08:34;6.45;;;3.25;;
70825;SDS011;58446;41.490;22.098;2023-04-25T10:11:02;7.50;;;2.90;;
70825;SDS011;58446;41.490;22.098;2023-04-25T10:13:29;4.60;;;2.22;;
70825;SDS011;58446;41.490;22.098;2023-04-25T10:15:59;6.15;;;2.50;;
70825;SDS011;58446;41.490;22.098;2023-04-25T10:18:26;7.75;;;4.60;;
70825;SDS011;58446;41.490;22.098;2023-04-25T10:20:57;8.25;;;3.70;;
70825;SDS011;58446;41.490;22.098;2023-04-25T10:23:25;5.40;;;2.57;;
70825;SDS011;58446;41.490;22.098;2023-04-25T10:25:52;5.65;;;2.53;;
70825;SDS011;58446;41.490;22.098;2023-04-25T10:28:19;9.02;;;2.47;;
70825;SDS011;58446;41.490;22.098;2023-04-25T10:30:57;5.55;;;2.50;;
70825;SDS011;58446;41.490;22.098;2023-04-25T10:33:34;9.07;;;2.90;;
70825;SDS011;58446;41.490;22.098;2023-04-25T10:36:15;6.87;;;2.17;;
70825;SDS011;58446;41.490;22.098;2023-04-25T10:38:43;5.63;;;2.40;;
70825;SDS011;58446;41.490;22.098;2023-04-25T10:41:11;4.60;;;2.22;;
70825;SDS011;58446;41.490;22.098;2023-04-25T10:43:39;5.88;;;2.70;;
70825;SDS011;58446;41.490;22.098;2023-04-25T10:46:22;5.28;;;2.70;;
70825;SDS011;58446;41.490;22.098;2023-04-25T10:48:52;5.83;;;2.63;;
70825;SDS011;58446;41.490;22.098;2023-04-25T10:51:20;4.85;;;2.40;;
70825;SDS011;58446;41.490;22.098;2023-04-25T10:53:56;4.90;;;2.38;;
70825;SDS011;58446;41.490;22.098;2023-04-25T10:56:27;5.05;;;2.65;;
70825;SDS011;58446;41.490;22.098;2023-04-25T10:59:11;5.78;;;2.72;;
70825;SDS011;58446;41.490;22.098;2023-04-25T11:01:43;5.07;;;2.70;;
70825;SDS011;58446;41.490;22.098;2023-04-25T11:04:19;4.75;;;2.53;;
70825;SDS011;58446;41.490;22.098;2023-04-25T11:07:00;4.70;;;2.20;;
70825;SDS011;58446;41.490;22.098;2023-04-25T11:09:48;5.05;;;2.50;;
70825;SDS011;58446;41.490;22.098;2023-04-25T11:12:17;4.50;;;2.10;;
70825;SDS011;58446;41.490;22.098;2023-04-25T11:14:43;4.90;;;2.53;;
70825;SDS011;58446;41.490;22.098;2023-04-25T11:17:09;5.05;;;2.20;;
70825;SDS011;58446;41.490;22.098;2023-04-25T11:19:36;5.75;;;2.60;;
70825;SDS011;58446;41.490;22.098;2023-04-25T11:22:02;4.63;;;2.20;;
70825;SDS011;58446;41.490;22.098;2023-04-25T11:24:29;4.53;;;2.28;;
70825;SDS011;58446;41.490;22.098;2023-04-25T11:26:56;4.55;;;2.42;;
70825;SDS011;58446;41.490;22.098;2023-04-25T11:29:27;4.90;;;2.13;;
70825;SDS011;58446;41.490;22.098;2023-04-25T11:31:57;5.10;;;2.55;;
70825;SDS011;58446;41.490;22.098;2023-04-25T11:34:23;4.80;;;2.60;;
70825;SDS011;58446;41.490;22.098;2023-04-25T11:36:50;5.93;;;2.85;;
70825;SDS011;58446;41.490;22.098;2023-04-25T11:39:18;7.15;;;3.10;;
70825;SDS011;58446;41.490;22.098;2023-04-25T11:41:44;4.75;;;2.50;;
70825;SDS011;58446;41.490;22.098;2023-04-25T11:44:10;5.82;;;2.72;;
70825;SDS011;58446;41.490;22.098;2023-04-25T11:46:36;7.63;;;4.47;;
70825;SDS011;58446;41.490;22.098;2023-04-25T11:49:02;6.15;;;3.47;;
70825;SDS011;58446;41.490;22.098;2023-04-25T11:51:30;6.80;;;3.85;;
70825;SDS011;58446;41.490;22.098;2023-04-25T11:53:56;7.25;;;3.95;;
70825;SDS011;58446;41.490;22.098;2023-04-25T11:56:22;6.60;;;3.10;;
70825;SDS011;58446;41.490;22.098;2023-04-25T11:58:57;6.20;;;3.47;;
70825;SDS011;58446;41.490;22.098;2023-04-25T12:03:55;4.90;;;2.70;;
70825;SDS011;58446;41.490;22.098;2023-04-25T12:06:21;5.00;;;2.80;;
70825;SDS011;58446;41.490;22.098;2023-04-25T12:09:01;7.82;;;4.32;;
70825;SDS011;58446;41.490;22.098;2023-04-25T12:11:30;8.13;;;3.27;;
70825;SDS011;58446;41.490;22.098;2023-04-25T12:14:02;5.70;;;3.17;;
70825;SDS011;58446;41.490;22.098;2023-04-25T12:16:39;7.43;;;3.70;;
70825;SDS011;58446;41.490;22.098;2023-04-25T12:19:06;10.85;;;4.43;;
70825;SDS011;58446;41.490;22.098;2023-04-25T12:21:32;8.35;;;4.22;;
70825;SDS011;58446;41.490;22.098;2023-04-25T12:24:09;5.00;;;2.93;;
70825;SDS011;58446;41.490;22.098;2023-04-25T12:26:45;5.57;;;2.88;;
70825;SDS011;58446;41.490;22.098;2023-04-25T12:29:31;5.20;;;2.72;;
70825;SDS011;58446;41.490;22.098;2023-04-25T12:31:58;6.13;;;2.83;;
70825;SDS011;58446;41.490;22.098;2023-04-25T12:34:25;7.03;;;2.60;;
70825;SDS011;58446;41.490;22.098;2023-04-25T12:36:51;6.18;;;3.38;;
70825;SDS011;58446;41.490;22.098;2023-04-25T12:39:18;5.57;;;2.40;;
70825;SDS011;58446;41.490;22.098;2023-04-25T12:41:45;4.88;;;2.67;;
70825;SDS011;58446;41.490;22.098;2023-04-25T12:44:11;6.20;;;2.60;;
70825;SDS011;58446;41.490;22.098;2023-04-25T12:46:38;6.72;;;2.53;;
70825;SDS011;58446;41.490;22.098;2023-04-25T12:49:04;6.05;;;2.35;;
70825;SDS011;58446;41.490;22.098;2023-04-25T12:51:31;6.25;;;2.90;;
70825;SDS011;58446;41.490;22.098;2023-04-25T12:53:58;5.80;;;3.17;;
70825;SDS011;58446;41.490;22.098;2023-04-25T12:56:25;6.50;;;1.93;;
70825;SDS011;58446;41.490;22.098;2023-04-25T12:58:52;5.30;;;2.55;;
70825;SDS011;58446;41.490;22.098;2023-04-25T13:01:19;5.10;;;2.55;;
70825;SDS011;58446;41.490;22.098;2023-04-25T13:03:47;7.20;;;3.10;;
70825;SDS011;58446;41.490;22.098;2023-04-25T13:06:14;6.07;;;2.38;;
70825;SDS011;58446;41.490;22.098;2023-04-25T13:08:40;5.57;;;2.63;;
70825;SDS011;58446;41.490;22.098;2023-04-25T13:11:07;4.88;;;2.65;;
70825;SDS011;58446;41.490;22.098;2023-04-25T13:13:33;5.55;;;2.90;;
70825;SDS011;58446;41.490;22.098;2023-04-25T13:16:02;6.13;;;2.85;;
70825;SDS011;58446;41.490;22.098;2023-04-25T13:18:29;5.47;;;2.42;;
70825;SDS011;58446;41.490;22.098;2023-04-25T13:20:56;6.57;;;3.07;;
70825;SDS011;58446;41.490;22.098;2023-04-25T13:23:23;6.07;;;2.80;;
70825;SDS011;58446;41.490;22.098;2023-04-25T13:25:50;6.43;;;3.40;;
70825;SDS011;58446;41.490;22.098;2023-04-25T13:28:15;6.75;;;3.30;;
70825;SDS011;58446;41.490;22.098;2023-04-25T13:30:42;6.60;;;2.97;;
70825;SDS011;58446;41.490;22.098;2023-04-25T13:33:07;6.70;;;2.78;;
70825;SDS011;58446;41.490;22.098;2023-04-25T13:35:34;5.40;;;2.83;;
70825;SDS011;58446;41.490;22.098;2023-04-25T13:38:01;5.82;;;3.00;;
70825;SDS011;58446;41.490;22.098;2023-04-25T13:40:27;5.83;;;3.40;;
70825;SDS011;58446;41.490;22.098;2023-04-25T13:42:54;5.55;;;2.75;;
70825;SDS011;58446;41.490;22.098;2023-04-25T13:45:20;5.28;;;2.75;;
70825;SDS011;58446;41.490;22.098;2023-04-25T13:47:46;5.20;;;2.53;;
70825;SDS011;58446;41.490;22.098;2023-04-25T13:50:12;4.90;;;2.53;;
70825;SDS011;58446;41.490;22.098;2023-04-25T13:52:39;6.00;;;2.88;;
70825;SDS011;58446;41.490;22.098;2023-04-25T13:55:05;7.03;;;4.65;;
70825;SDS011;58446;41.490;22.098;2023-04-25T13:57:34;7.88;;;5.30;;
70825;SDS011;58446;41.490;22.098;2023-04-25T14:00:01;5.37;;;2.30;;
70825;SDS011;58446;41.490;22.098;2023-04-25T14:02:37;7.40;;;3.25;;
70825;SDS011;58446;41.490;22.098;2023-04-25T14:05:03;6.90;;;3.28;;
70825;SDS011;58446;41.490;22.098;2023-04-25T14:07:29;6.43;;;3.33;;
70825;SDS011;58446;41.490;22.098;2023-04-25T14:09:56;6.13;;;2.78;;
70825;SDS011;58446;41.490;22.098;2023-04-25T14:12:22;5.50;;;2.93;;
70825;SDS011;58446;41.490;22.098;2023-04-25T14:14:48;6.05;;;2.42;;
70825;SDS011;58446;41.490;22.098;2023-04-25T14:17:14;6.05;;;2.22;;
70825;SDS011;58446;41.490;22.098;2023-04-25T14:19:40;6.27;;;3.00;;
70825;SDS011;58446;41.490;22.098;2023-04-25T14:22:08;10.32;;;6.00;;
70825;SDS011;58446;41.490;22.098;2023-04-25T14:24:34;5.25;;;2.55;;
70825;SDS011;58446;41.490;22.098;2023-04-25T14:27:01;7.43;;;4.03;;
70825;SDS011;58446;41.490;22.098;2023-04-25T14:29:27;5.60;;;2.43;;
70825;SDS011;58446;41.490;22.098;2023-04-25T14:31:53;5.03;;;2.70;;
70825;SDS011;58446;41.490;22.098;2023-04-25T14:34:19;10.57;;;5.90;;